createdAt,value
2023-07-06T00:00:27.241Z,3.00
2023-07-06T00:01:10.283Z,2.88
2023-07-06T00:01:52.990Z,2.70
2023-07-06T00:02:35.255Z,2.55
2023-07-06T00:03:17.436Z,2.70
2023-07-06T00:04:00.543Z,2.60
2023-07-06T00:04:42.797Z,2.90
2023-07-06T00:05:25.067Z,2.40
2023-07-06T00:06:08.709Z,2.40
2023-07-06T00:06:50.988Z,2.70
2023-07-06T00:07:33.163Z,2.65
2023-07-06T00:08:18.346Z,2.60
2023-07-06T00:09:01.254Z,2.60
2023-07-06T00:09:46.580Z,2.78
2023-07-06T00:10:28.811Z,2.30
2023-07-06T00:11:11.042Z,2.50
2023-07-06T00:11:53.314Z,2.70
2023-07-06T00:12:36.120Z,2.92
2023-07-06T00:13:18.798Z,2.50
2023-07-06T00:14:01.210Z,2.38
2023-07-06T00:14:44.103Z,2.50
2023-07-06T00:15:28.433Z,2.60
2023-07-06T00:16:13.078Z,2.60
2023-07-06T00:17:09.546Z,2.25
2023-07-06T00:17:51.999Z,2.65
2023-07-06T00:18:34.353Z,2.90
2023-07-06T00:19:20.423Z,2.70
2023-07-06T00:20:11.832Z,2.70
2023-07-06T00:20:53.982Z,2.88
2023-07-06T00:21:36.343Z,2.70
2023-07-06T00:22:21.857Z,2.53
2023-07-06T00:23:04.118Z,2.40
2023-07-06T00:23:46.348Z,2.40
2023-07-06T00:24:28.646Z,2.80
2023-07-06T00:25:10.955Z,2.45
2023-07-06T00:25:53.492Z,2.40
2023-07-06T00:26:35.948Z,2.50
2023-07-06T00:27:18.249Z,2.60
2023-07-06T00:28:00.430Z,2.40
2023-07-06T00:28:42.908Z,2.30
2023-07-06T00:29:25.224Z,2.35
2023-07-06T00:30:19.054Z,2.70
2023-07-06T00:31:09.257Z,2.67
2023-07-06T00:32:05.389Z,2.40
2023-07-06T00:32:49.082Z,2.40
2023-07-06T00:33:31.983Z,2.85
2023-07-06T00:34:14.266Z,2.70
2023-07-06T00:34:57.059Z,2.60
2023-07-06T00:35:42.473Z,2.80
2023-07-06T00:36:26.858Z,2.40
2023-07-06T00:37:09.034Z,2.90
2023-07-06T00:37:52.540Z,2.70
2023-07-06T00:38:36.895Z,2.30
2023-07-06T00:39:19.219Z,2.70
2023-07-06T00:40:02.110Z,3.03
2023-07-06T00:40:46.040Z,2.80
2023-07-06T00:41:28.893Z,3.10
2023-07-06T00:42:18.174Z,2.47
2023-07-06T00:43:03.512Z,2.38
2023-07-06T00:43:51.230Z,2.40
2023-07-06T00:44:55.529Z,2.70
2023-07-06T00:45:39.159Z,2.40
2023-07-06T00:46:22.665Z,2.42
2023-07-06T00:47:05.087Z,2.53
2023-07-06T00:47:57.966Z,2.33
2023-07-06T00:48:45.426Z,2.63
2023-07-06T00:49:28.163Z,2.70
2023-07-06T00:50:15.363Z,2.78
2023-07-06T00:51:02.082Z,2.70
2023-07-06T00:51:45.519Z,2.90
2023-07-06T00:52:27.989Z,2.83
2023-07-06T00:53:12.480Z,2.80
2023-07-06T00:53:58.928Z,2.90
2023-07-06T00:54:41.723Z,2.95
2023-07-06T00:55:26.731Z,2.60
2023-07-06T00:56:10.133Z,2.70
2023-07-06T00:56:53.402Z,2.90
2023-07-06T00:57:36.469Z,2.80
2023-07-06T00:58:27.104Z,2.90
2023-07-06T00:59:10.731Z,2.75
2023-07-06T00:59:54.642Z,2.63
2023-07-06T01:00:38.210Z,2.55
2023-07-06T01:01:24.151Z,2.53
2023-07-06T01:02:07.060Z,2.90
2023-07-06T01:02:55.318Z,2.83
2023-07-06T01:03:45.426Z,2.70
2023-07-06T01:04:31.563Z,2.58
2023-07-06T01:05:13.835Z,2.55
2023-07-06T01:06:02.301Z,2.70
2023-07-06T01:06:48.629Z,2.60
2023-07-06T01:07:32.957Z,2.70
2023-07-06T01:08:17.107Z,2.80
2023-07-06T01:09:02.377Z,3.08
2023-07-06T01:09:47.120Z,2.83
2023-07-06T01:10:29.437Z,2.80
2023-07-06T01:11:18.179Z,2.60
2023-07-06T01:12:04.210Z,2.60
2023-07-06T01:12:50.234Z,2.53
2023-07-06T01:13:33.837Z,3.13
2023-07-06T01:14:16.438Z,2.70
2023-07-06T01:14:59.128Z,2.80
2023-07-06T01:15:47.791Z,2.55
2023-07-06T01:16:43.719Z,2.40
2023-07-06T01:17:34.513Z,2.85
2023-07-06T01:18:22.493Z,2.95
2023-07-06T01:19:41.217Z,3.10
2023-07-06T01:20:23.449Z,3.08
2023-07-06T01:21:10.792Z,3.70
2023-07-06T01:21:53.155Z,2.90
2023-07-06T01:22:47.209Z,3.30
2023-07-06T01:23:46.791Z,3.05
2023-07-06T01:24:46.998Z,3.10
2023-07-06T01:25:35.707Z,3.00
2023-07-06T01:26:35.477Z,2.72
2023-07-06T01:27:47.261Z,3.05
2023-07-06T01:28:37.533Z,3.15
2023-07-06T01:29:22.765Z,2.95
2023-07-06T01:30:08.632Z,2.80
2023-07-06T01:31:27.653Z,2.90
2023-07-06T01:32:14.435Z,3.10
2023-07-06T01:33:01.880Z,2.95
2023-07-06T01:33:52.045Z,2.90
2023-07-06T01:34:52.292Z,2.92
2023-07-06T01:35:51.926Z,3.38
2023-07-06T01:36:39.369Z,2.80
2023-07-06T01:37:24.505Z,3.40
2023-07-06T01:38:06.934Z,3.35
2023-07-06T01:38:49.395Z,2.70
2023-07-06T01:39:31.780Z,3.00
2023-07-06T01:40:14.149Z,3.13
2023-07-06T01:40:56.407Z,2.90
2023-07-06T01:41:40.596Z,2.80
2023-07-06T01:42:31.362Z,3.08
2023-07-06T01:43:14.546Z,2.90
2023-07-06T01:43:56.794Z,2.80
2023-07-06T01:44:39.972Z,3.00
2023-07-06T01:45:24.110Z,2.90
2023-07-06T01:46:06.297Z,3.28
2023-07-06T01:46:51.480Z,2.83
2023-07-06T01:47:36.535Z,2.90
2023-07-06T01:48:18.847Z,3.08
2023-07-06T01:49:03.183Z,2.85
2023-07-06T01:49:47.689Z,2.80
2023-07-06T01:50:36.456Z,2.95
2023-07-06T01:51:27.458Z,3.22
2023-07-06T01:52:17.269Z,2.97
2023-07-06T01:53:07.454Z,3.25
2023-07-06T01:54:01.880Z,3.20
2023-07-06T01:54:59.814Z,2.80
2023-07-06T01:56:01.877Z,2.90
2023-07-06T01:57:08.441Z,2.88
2023-07-06T01:58:01.642Z,2.97
2023-07-06T01:58:46.995Z,3.00
2023-07-06T01:59:35.585Z,3.03
2023-07-06T02:00:22.832Z,3.00
2023-07-06T02:01:08.975Z,2.80
2023-07-06T02:02:01.858Z,2.70
2023-07-06T02:02:53.573Z,2.65
2023-07-06T02:03:38.118Z,3.30
2023-07-06T02:04:21.743Z,2.85
2023-07-06T02:05:04.240Z,2.85
2023-07-06T02:05:46.568Z,2.80
2023-07-06T02:06:29.240Z,3.00
2023-07-06T02:07:13.000Z,3.10
2023-07-06T02:07:55.795Z,3.05
2023-07-06T02:08:42.806Z,2.47
2023-07-06T02:09:27.666Z,3.15
2023-07-06T02:10:10.509Z,2.80
2023-07-06T02:10:54.063Z,3.10
2023-07-06T02:11:36.549Z,3.00
2023-07-06T02:12:19.795Z,2.58
2023-07-06T02:13:04.271Z,2.58
2023-07-06T02:13:46.537Z,2.70
2023-07-06T02:14:28.792Z,3.20
2023-07-06T02:15:11.720Z,2.92
2023-07-06T02:15:54.125Z,3.40
2023-07-06T02:16:36.793Z,2.90
2023-07-06T02:17:23.686Z,2.70
2023-07-06T02:18:05.973Z,2.20
2023-07-06T02:18:48.435Z,3.20
2023-07-06T02:19:30.663Z,2.90
2023-07-06T02:20:13.070Z,2.80
2023-07-06T02:20:55.609Z,3.10
2023-07-06T02:21:40.128Z,3.50
2023-07-06T02:22:22.646Z,3.50
2023-07-06T02:23:04.863Z,3.15
2023-07-06T02:23:47.649Z,2.80
2023-07-06T02:24:29.933Z,2.70
2023-07-06T02:25:12.401Z,3.00
2023-07-06T02:25:57.635Z,3.10
2023-07-06T02:26:39.996Z,3.35
2023-07-06T02:27:22.643Z,3.45
2023-07-06T02:28:04.909Z,3.00
2023-07-06T02:28:47.126Z,2.85
2023-07-06T02:29:29.780Z,3.30
2023-07-06T02:30:12.161Z,3.55
2023-07-06T02:30:54.571Z,3.03
2023-07-06T02:31:36.814Z,3.20
2023-07-06T02:32:19.004Z,3.03
2023-07-06T02:33:01.290Z,2.90
2023-07-06T02:33:43.890Z,2.75
2023-07-06T02:34:26.785Z,3.00
2023-07-06T02:35:12.224Z,3.53
2023-07-06T02:35:56.812Z,2.92
2023-07-06T02:36:41.896Z,2.83
2023-07-06T02:37:26.626Z,2.83
2023-07-06T02:38:08.817Z,2.92
2023-07-06T02:38:51.009Z,2.63
2023-07-06T02:39:33.292Z,2.60
2023-07-06T02:40:15.767Z,3.20
2023-07-06T02:41:05.345Z,3.15
2023-07-06T02:41:48.110Z,3.10
2023-07-06T02:42:30.357Z,2.90
2023-07-06T02:43:12.824Z,2.85
2023-07-06T02:43:55.058Z,2.90
2023-07-06T02:44:38.272Z,2.60
2023-07-06T02:45:20.856Z,3.08
2023-07-06T02:46:06.560Z,3.30
2023-07-06T02:46:49.158Z,3.10
2023-07-06T02:47:31.716Z,3.00
2023-07-06T02:48:14.019Z,3.25
2023-07-06T02:48:56.316Z,3.10
2023-07-06T02:49:38.806Z,2.90
2023-07-06T02:50:21.337Z,3.17
2023-07-06T02:51:04.071Z,3.00
2023-07-06T02:51:50.055Z,3.10
2023-07-06T02:52:32.291Z,3.40
2023-07-06T02:53:15.812Z,3.00
2023-07-06T02:53:58.696Z,2.78
2023-07-06T02:54:40.925Z,2.97
2023-07-06T02:55:28.602Z,3.33
2023-07-06T02:56:10.870Z,3.15
2023-07-06T02:56:53.187Z,2.70
2023-07-06T02:57:35.462Z,2.90
2023-07-06T02:58:17.845Z,2.60
2023-07-06T02:59:00.205Z,2.90
2023-07-06T02:59:42.378Z,3.15
2023-07-06T03:00:25.215Z,2.80
2023-07-06T03:01:07.457Z,3.17
2023-07-06T03:01:50.026Z,3.58
2023-07-06T03:02:32.317Z,3.08
2023-07-06T03:03:15.419Z,2.72
2023-07-06T03:03:59.837Z,2.80
2023-07-06T03:04:44.933Z,3.13
2023-07-06T03:05:27.167Z,2.60
2023-07-06T03:06:11.618Z,3.40
2023-07-06T03:06:55.203Z,3.55
2023-07-06T03:07:40.092Z,2.95
2023-07-06T03:08:24.828Z,3.00
2023-07-06T03:09:08.850Z,2.60
2023-07-06T03:09:51.064Z,3.05
2023-07-06T03:10:33.610Z,3.20
2023-07-06T03:11:17.324Z,2.60
2023-07-06T03:11:59.841Z,2.75
2023-07-06T03:12:42.103Z,2.80
2023-07-06T03:13:32.116Z,3.00
2023-07-06T03:14:14.308Z,2.92
2023-07-06T03:14:56.518Z,2.80
2023-07-06T03:15:41.670Z,2.70
2023-07-06T03:16:23.955Z,2.80
2023-07-06T03:17:06.266Z,2.63
2023-07-06T03:17:52.499Z,2.60
2023-07-06T03:18:34.986Z,2.60
2023-07-06T03:19:19.721Z,2.97
2023-07-06T03:20:04.937Z,3.10
2023-07-06T03:20:49.601Z,3.10
2023-07-06T03:21:31.918Z,2.75
2023-07-06T03:22:14.887Z,2.55
2023-07-06T03:22:57.056Z,3.08
2023-07-06T03:23:39.264Z,2.40
2023-07-06T03:24:21.488Z,2.63
2023-07-06T03:25:06.293Z,2.80
2023-07-06T03:25:51.810Z,2.63
2023-07-06T03:26:35.347Z,2.60
2023-07-06T03:27:19.660Z,2.63
2023-07-06T03:28:02.008Z,2.70
2023-07-06T03:28:51.049Z,2.90
2023-07-06T03:29:36.947Z,2.50
2023-07-06T03:30:21.484Z,2.45
2023-07-06T03:31:04.588Z,2.90
2023-07-06T03:31:47.064Z,2.88
2023-07-06T03:32:30.556Z,2.40
2023-07-06T03:33:13.097Z,2.97
2023-07-06T03:33:55.295Z,2.70
2023-07-06T03:34:38.594Z,2.45
2023-07-06T03:35:23.352Z,2.67
2023-07-06T03:36:07.825Z,2.85
2023-07-06T03:36:50.035Z,2.60
2023-07-06T03:37:32.218Z,2.30
2023-07-06T03:38:14.404Z,2.30
2023-07-06T03:38:58.503Z,2.38
2023-07-06T03:39:42.848Z,2.58
2023-07-06T03:40:26.021Z,2.55
2023-07-06T03:41:09.062Z,2.90
2023-07-06T03:41:51.294Z,2.88
2023-07-06T03:42:34.105Z,2.63
2023-07-06T03:43:17.177Z,2.60
2023-07-06T03:44:02.228Z,2.70
2023-07-06T03:44:44.429Z,2.70
2023-07-06T03:45:26.956Z,3.17
2023-07-06T03:46:09.288Z,2.60
2023-07-06T03:46:51.882Z,2.50
2023-07-06T03:47:37.211Z,2.60
2023-07-06T03:48:23.003Z,2.90
2023-07-06T03:49:06.198Z,2.58
2023-07-06T03:49:48.390Z,2.70
2023-07-06T03:50:32.470Z,2.60
2023-07-06T03:51:15.060Z,2.75
2023-07-06T03:51:57.385Z,2.40
2023-07-06T03:52:40.652Z,2.28
2023-07-06T03:53:23.402Z,2.90
2023-07-06T03:54:07.399Z,2.40
2023-07-06T03:54:50.810Z,2.40
2023-07-06T03:55:33.206Z,2.50
2023-07-06T03:56:16.813Z,2.50
2023-07-06T03:56:59.047Z,3.00
2023-07-06T03:57:54.581Z,3.13
2023-07-06T03:58:44.085Z,2.88
2023-07-06T03:59:32.697Z,2.80
2023-07-06T04:00:23.096Z,2.50
2023-07-06T04:01:05.395Z,2.50
2023-07-06T04:01:51.680Z,2.30
2023-07-06T04:02:34.097Z,2.50
2023-07-06T04:03:16.340Z,3.30
2023-07-06T04:03:59.192Z,2.90
2023-07-06T04:04:43.281Z,2.40
2023-07-06T04:05:28.908Z,2.63
2023-07-06T04:06:11.123Z,2.72
2023-07-06T04:06:54.150Z,3.00
2023-07-06T04:07:36.386Z,3.00
2023-07-06T04:08:20.297Z,3.10
2023-07-06T04:09:02.613Z,2.50
2023-07-06T04:09:45.653Z,2.42
2023-07-06T04:10:29.630Z,2.58
2023-07-06T04:11:12.181Z,2.50
2023-07-06T04:11:54.590Z,2.75
2023-07-06T04:12:38.503Z,2.63
2023-07-06T04:13:20.795Z,2.78
2023-07-06T04:14:03.290Z,2.78
2023-07-06T04:14:45.577Z,2.90
2023-07-06T04:15:30.528Z,2.67
2023-07-06T04:16:17.543Z,2.35
2023-07-06T04:17:02.335Z,2.90
2023-07-06T04:17:46.596Z,2.90
2023-07-06T04:18:29.050Z,2.60
2023-07-06T04:19:11.815Z,3.00
2023-07-06T04:19:54.718Z,3.20
2023-07-06T04:20:37.268Z,2.85
2023-07-06T04:21:19.806Z,3.17
2023-07-06T04:22:03.737Z,2.70
2023-07-06T04:22:46.536Z,3.47
2023-07-06T04:23:29.269Z,3.20
2023-07-06T04:24:11.543Z,2.72
2023-07-06T04:24:53.743Z,2.50
2023-07-06T04:25:36.396Z,2.58
2023-07-06T04:26:19.475Z,2.72
2023-07-06T04:27:02.229Z,2.88
2023-07-06T04:27:45.496Z,2.45
2023-07-06T04:28:27.761Z,2.70
2023-07-06T04:29:11.312Z,2.80
2023-07-06T04:29:53.501Z,2.80
2023-07-06T04:30:36.931Z,3.10
2023-07-06T04:31:19.626Z,2.95
2023-07-06T04:32:02.170Z,2.80
2023-07-06T04:32:52.550Z,2.90
2023-07-06T04:33:37.108Z,2.50
2023-07-06T04:34:19.511Z,3.08
2023-07-06T04:35:01.904Z,2.75
2023-07-06T04:35:44.500Z,3.60
2023-07-06T04:36:26.741Z,2.70
2023-07-06T04:37:10.967Z,2.67
2023-07-06T04:37:54.352Z,3.05
2023-07-06T04:38:36.566Z,2.70
2023-07-06T04:39:18.813Z,2.90
2023-07-06T04:40:02.012Z,2.92
2023-07-06T04:40:44.386Z,2.70
2023-07-06T04:41:27.402Z,3.10
2023-07-06T04:42:12.357Z,2.50
2023-07-06T04:42:55.577Z,3.20
2023-07-06T04:43:37.830Z,2.80
2023-07-06T04:44:22.810Z,2.80
2023-07-06T04:45:05.559Z,2.72
2023-07-06T04:45:47.984Z,2.70
2023-07-06T04:46:30.411Z,2.58
2023-07-06T04:47:12.724Z,2.30
2023-07-06T04:47:55.506Z,2.67
2023-07-06T04:48:37.929Z,2.80
2023-07-06T04:49:21.477Z,3.10
2023-07-06T04:50:05.624Z,3.40
2023-07-06T04:50:47.862Z,3.10
2023-07-06T04:51:30.374Z,3.08
2023-07-06T04:52:15.522Z,3.20
2023-07-06T04:52:59.651Z,2.70
2023-07-06T04:53:43.792Z,2.97
2023-07-06T04:54:26.033Z,3.30
2023-07-06T04:55:11.893Z,3.42
2023-07-06T04:55:55.983Z,3.25
2023-07-06T04:56:38.544Z,3.20
2023-07-06T04:57:20.734Z,3.40
2023-07-06T04:58:06.859Z,3.30
2023-07-06T04:58:49.452Z,3.10
2023-07-06T04:59:31.683Z,3.05
2023-07-06T05:00:19.189Z,3.10
2023-07-06T05:01:06.755Z,3.20
2023-07-06T05:01:49.222Z,2.80
2023-07-06T05:02:33.541Z,3.15
2023-07-06T05:03:16.021Z,2.80
2023-07-06T05:03:58.892Z,3.20
2023-07-06T05:04:44.178Z,3.10
2023-07-06T05:05:46.700Z,3.10
2023-07-06T05:06:29.672Z,3.50
2023-07-06T05:07:15.490Z,3.42
2023-07-06T05:07:57.746Z,3.20
2023-07-06T05:08:44.803Z,3.00
2023-07-06T05:09:28.015Z,3.22
2023-07-06T05:10:10.650Z,3.20
2023-07-06T05:10:53.854Z,3.50
2023-07-06T05:11:36.924Z,3.15
2023-07-06T05:12:19.167Z,3.20
2023-07-06T05:13:03.486Z,2.60
2023-07-06T05:13:46.523Z,2.80
2023-07-06T05:14:28.812Z,3.00
2023-07-06T05:15:13.587Z,3.00
2023-07-06T05:15:56.055Z,3.30
2023-07-06T05:16:38.611Z,3.35
2023-07-06T05:17:21.049Z,3.10
2023-07-06T05:18:04.583Z,2.92
2023-07-06T05:18:49.446Z,2.95
2023-07-06T05:19:35.446Z,2.78
2023-07-06T05:20:17.831Z,3.00
2023-07-06T05:21:00.135Z,3.20
2023-07-06T05:21:42.596Z,2.80
2023-07-06T05:22:25.247Z,2.55
2023-07-06T05:23:09.197Z,3.28
2023-07-06T05:23:51.559Z,2.78
2023-07-06T05:24:33.821Z,2.67
2023-07-06T05:25:16.764Z,2.72
2023-07-06T05:26:04.637Z,2.80
2023-07-06T05:26:46.959Z,2.80
2023-07-06T05:27:30.280Z,2.92
2023-07-06T05:28:12.739Z,2.60
2023-07-06T05:28:55.235Z,2.65
2023-07-06T05:29:37.599Z,3.00
2023-07-06T05:30:22.094Z,2.55
2023-07-06T05:31:05.029Z,2.85
2023-07-06T05:31:48.679Z,3.22
2023-07-06T05:32:31.275Z,3.05
2023-07-06T05:33:13.869Z,2.90
2023-07-06T05:33:56.060Z,2.78
2023-07-06T05:34:41.004Z,2.78
2023-07-06T05:35:24.268Z,2.97
2023-07-06T05:36:06.609Z,3.08
2023-07-06T05:36:48.921Z,2.45
2023-07-06T05:37:36.215Z,2.70
2023-07-06T05:38:18.931Z,2.50
2023-07-06T05:39:01.186Z,2.50
2023-07-06T05:39:43.637Z,2.95
2023-07-06T05:40:25.867Z,2.90
2023-07-06T05:41:08.135Z,2.90
2023-07-06T05:41:52.819Z,2.70
2023-07-06T05:42:35.047Z,2.42
2023-07-06T05:43:20.033Z,2.67
2023-07-06T05:44:02.627Z,3.08
2023-07-06T05:44:47.624Z,2.63
2023-07-06T05:45:29.832Z,2.45
2023-07-06T05:46:12.120Z,2.50
2023-07-06T05:46:54.456Z,2.78
2023-07-06T05:47:37.063Z,2.90
2023-07-06T05:48:19.973Z,2.78
2023-07-06T05:49:02.318Z,2.13
2023-07-06T05:49:46.589Z,2.22
2023-07-06T05:50:29.036Z,3.03
2023-07-06T05:51:11.199Z,2.53
2023-07-06T05:51:53.401Z,2.30
2023-07-06T05:52:35.753Z,2.45
2023-07-06T05:53:17.954Z,3.03
2023-07-06T05:54:00.191Z,2.38
2023-07-06T05:54:42.693Z,2.58
2023-07-06T05:55:25.042Z,2.70
2023-07-06T05:56:07.274Z,2.80
2023-07-06T05:56:52.273Z,2.28
2023-07-06T05:57:37.077Z,2.40
2023-07-06T05:58:19.327Z,2.40
2023-07-06T05:59:02.007Z,3.17
2023-07-06T05:59:44.778Z,2.80
2023-07-06T06:00:27.115Z,2.40
2023-07-06T06:01:11.676Z,2.63
2023-07-06T06:01:56.573Z,2.67
2023-07-06T06:02:39.438Z,2.20
2023-07-06T06:03:21.764Z,2.55
2023-07-06T06:04:04.009Z,2.75
2023-07-06T06:04:48.549Z,2.30
2023-07-06T06:05:31.097Z,2.50
2023-07-06T06:06:13.377Z,2.10
2023-07-06T06:06:57.807Z,2.10
2023-07-06T06:07:40.034Z,2.30
2023-07-06T06:08:22.290Z,2.28
2023-07-06T06:09:05.811Z,2.30
2023-07-06T06:09:51.654Z,2.33
2023-07-06T06:10:36.480Z,2.42
2023-07-06T06:11:20.423Z,2.50
2023-07-06T06:12:05.969Z,2.60
2023-07-06T06:12:49.550Z,2.30
2023-07-06T06:13:32.024Z,2.35
2023-07-06T06:14:14.361Z,1.92
2023-07-06T06:14:57.218Z,2.50
2023-07-06T06:15:39.485Z,1.90
2023-07-06T06:16:21.886Z,1.90
2023-07-06T06:17:04.347Z,2.10
2023-07-06T06:17:47.011Z,2.40
2023-07-06T06:18:29.222Z,2.20
2023-07-06T06:19:11.772Z,2.10
2023-07-06T06:19:53.973Z,2.40
2023-07-06T06:20:38.019Z,2.33
2023-07-06T06:21:20.230Z,1.90
2023-07-06T06:22:07.910Z,2.28
2023-07-06T06:22:50.238Z,2.58
2023-07-06T06:23:33.869Z,2.50
2023-07-06T06:24:16.066Z,2.90
2023-07-06T06:24:58.841Z,2.50
2023-07-06T06:25:41.165Z,2.10
2023-07-06T06:26:23.436Z,2.40
2023-07-06T06:27:06.304Z,1.90
2023-07-06T06:27:49.993Z,2.00
2023-07-06T06:28:34.769Z,1.88
2023-07-06T06:29:18.330Z,1.90
2023-07-06T06:30:00.936Z,2.10
2023-07-06T06:30:43.256Z,2.30
2023-07-06T06:31:26.031Z,1.98
2023-07-06T06:32:08.948Z,2.08
2023-07-06T06:32:51.605Z,2.40
2023-07-06T06:33:33.864Z,2.42
2023-07-06T06:34:16.106Z,2.13
2023-07-06T06:34:58.335Z,2.20
2023-07-06T06:35:40.725Z,2.30
2023-07-06T06:36:24.088Z,2.03
2023-07-06T06:37:06.753Z,2.20
2023-07-06T06:37:49.036Z,2.10
2023-07-06T06:38:35.495Z,2.00
2023-07-06T06:39:17.876Z,2.30
2023-07-06T06:40:00.614Z,2.30
2023-07-06T06:40:43.937Z,2.40
2023-07-06T06:41:26.230Z,2.80
2023-07-06T06:42:09.298Z,3.05
2023-07-06T06:42:52.279Z,2.88
2023-07-06T06:43:37.943Z,2.50
2023-07-06T06:44:20.448Z,2.40
2023-07-06T06:45:02.952Z,2.60
2023-07-06T06:45:45.203Z,2.70
2023-07-06T06:46:27.440Z,2.40
2023-07-06T06:47:10.020Z,1.90
2023-07-06T06:47:52.376Z,2.00
2023-07-06T06:48:35.068Z,2.30
2023-07-06T06:49:17.423Z,1.88
2023-07-06T06:49:59.970Z,2.10
2023-07-06T06:50:42.224Z,2.10
2023-07-06T06:51:25.528Z,2.28
2023-07-06T06:52:08.345Z,2.10
2023-07-06T06:52:51.342Z,2.40
2023-07-06T06:53:34.528Z,2.30
2023-07-06T06:54:17.008Z,2.13
2023-07-06T06:54:59.255Z,2.70
2023-07-06T06:55:41.474Z,2.47
2023-07-06T06:56:24.478Z,2.40
2023-07-06T06:57:06.912Z,2.22
2023-07-06T06:57:52.235Z,2.85
2023-07-06T06:58:36.926Z,2.30
2023-07-06T06:59:19.649Z,1.90
2023-07-06T07:00:02.089Z,1.80
2023-07-06T07:00:45.618Z,2.08
2023-07-06T07:01:28.034Z,2.20
2023-07-06T07:02:11.641Z,2.30
2023-07-06T07:02:53.929Z,2.20
2023-07-06T07:03:36.549Z,2.13
2023-07-06T07:04:21.329Z,2.20
2023-07-06T07:05:03.693Z,2.38
2023-07-06T07:05:46.038Z,2.33
2023-07-06T07:06:29.922Z,2.08
2023-07-06T07:07:12.405Z,2.03
2023-07-06T07:07:56.934Z,2.00
2023-07-06T07:08:41.031Z,2.10
2023-07-06T07:09:23.247Z,2.45
2023-07-06T07:10:10.758Z,2.00
2023-07-06T07:11:07.373Z,1.92
2023-07-06T07:12:02.881Z,1.90
2023-07-06T07:12:45.308Z,1.90
2023-07-06T07:13:29.139Z,1.75
2023-07-06T07:14:12.001Z,2.17
2023-07-06T07:14:55.648Z,2.10
2023-07-06T07:15:40.093Z,2.20
2023-07-06T07:16:24.998Z,2.33
2023-07-06T07:17:11.561Z,2.58
2023-07-06T07:17:56.666Z,2.17
2023-07-06T07:18:39.680Z,1.80
2023-07-06T07:19:22.489Z,2.17
2023-07-06T07:20:07.021Z,2.40
2023-07-06T07:20:56.128Z,2.40
2023-07-06T07:21:38.359Z,2.33
2023-07-06T07:22:22.456Z,2.28
2023-07-06T07:23:06.232Z,2.65
2023-07-06T07:23:49.475Z,2.10
2023-07-06T07:24:32.018Z,2.40
2023-07-06T07:25:14.606Z,2.20
2023-07-06T07:25:57.220Z,2.30
2023-07-06T07:26:39.606Z,2.28
2023-07-06T07:27:22.038Z,2.05
2023-07-06T07:28:04.342Z,2.20
2023-07-06T07:28:52.455Z,2.20
2023-07-06T07:29:37.039Z,2.40
2023-07-06T07:30:19.592Z,2.40
2023-07-06T07:31:02.875Z,2.25
2023-07-06T07:31:45.342Z,2.30
2023-07-06T07:32:31.185Z,2.13
2023-07-06T07:33:13.869Z,2.28
2023-07-06T07:33:56.130Z,1.80
2023-07-06T07:34:38.294Z,2.20
2023-07-06T07:35:20.471Z,2.20
2023-07-06T07:36:03.389Z,2.17
2023-07-06T07:36:45.739Z,2.03
2023-07-06T07:37:28.229Z,1.80
2023-07-06T07:38:10.529Z,2.00
2023-07-06T07:38:54.727Z,2.70
2023-07-06T07:39:37.167Z,2.40
2023-07-06T07:40:20.300Z,2.17
2023-07-06T07:41:03.168Z,2.10
2023-07-06T07:41:47.028Z,2.30
2023-07-06T07:42:31.755Z,1.83
2023-07-06T07:43:16.439Z,1.95
2023-07-06T07:44:02.646Z,2.00
2023-07-06T07:44:45.898Z,1.80
2023-07-06T07:45:28.249Z,1.80
2023-07-06T07:46:12.753Z,2.28
2023-07-06T07:46:55.416Z,1.98
2023-07-06T07:47:38.740Z,2.00
2023-07-06T07:48:22.779Z,2.20
2023-07-06T07:49:05.302Z,1.90
2023-07-06T07:49:50.384Z,2.10
2023-07-06T07:50:33.919Z,2.00
2023-07-06T07:51:24.565Z,2.40
2023-07-06T07:52:07.558Z,1.88
2023-07-06T07:52:52.622Z,2.00
2023-07-06T07:53:37.340Z,2.00
2023-07-06T07:54:21.285Z,1.88
2023-07-06T07:55:03.483Z,1.90
2023-07-06T07:55:46.318Z,2.10
2023-07-06T07:56:29.189Z,1.80
2023-07-06T07:57:12.621Z,1.70
2023-07-06T07:57:54.855Z,2.00
2023-07-06T07:58:38.255Z,2.00
2023-07-06T07:59:20.447Z,1.80
2023-07-06T08:00:02.714Z,1.80
2023-07-06T08:00:56.652Z,1.80
2023-07-06T08:01:39.342Z,2.10
2023-07-06T08:02:21.823Z,1.92
2023-07-06T08:03:07.273Z,1.80
2023-07-06T08:03:49.772Z,1.92
2023-07-06T08:04:32.393Z,2.00
2023-07-06T08:05:14.642Z,1.90
2023-07-06T08:06:00.468Z,2.20
2023-07-06T08:06:42.751Z,2.22
2023-07-06T08:07:26.394Z,2.20
2023-07-06T08:08:08.670Z,2.38
2023-07-06T08:08:51.982Z,1.80
2023-07-06T08:09:34.598Z,1.98
2023-07-06T08:10:16.916Z,2.10
2023-07-06T08:11:01.916Z,2.10
2023-07-06T08:11:46.472Z,2.00
2023-07-06T08:12:28.734Z,2.10
2023-07-06T08:13:10.969Z,1.88
2023-07-06T08:13:55.375Z,2.33
2023-07-06T08:14:39.882Z,1.70
2023-07-06T08:15:24.099Z,1.67
2023-07-06T08:16:07.042Z,2.10
2023-07-06T08:16:52.312Z,2.10
2023-07-06T08:17:34.521Z,2.10
2023-07-06T08:18:17.136Z,2.30
2023-07-06T08:19:22.707Z,1.80
2023-07-06T08:20:35.280Z,1.80
2023-07-06T08:21:26.775Z,1.90
2023-07-06T08:22:12.323Z,2.20
2023-07-06T08:22:54.714Z,2.13
2023-07-06T08:23:39.331Z,1.90
2023-07-06T08:24:21.582Z,2.00
2023-07-06T08:25:12.666Z,2.00
2023-07-06T08:25:56.195Z,1.98
2023-07-06T08:26:39.393Z,2.00
2023-07-06T08:27:23.148Z,1.73
2023-07-06T08:28:06.804Z,1.85
2023-07-06T08:28:50.303Z,2.03
2023-07-06T08:29:32.899Z,2.03
2023-07-06T08:30:15.378Z,2.45
2023-07-06T08:31:02.392Z,2.15
2023-07-06T08:31:47.058Z,2.10
2023-07-06T08:32:29.578Z,2.35
2023-07-06T08:33:11.823Z,2.40
2023-07-06T08:33:54.444Z,2.10
2023-07-06T08:34:36.764Z,2.20
2023-07-06T08:35:19.475Z,1.95
2023-07-06T08:36:02.552Z,2.00
2023-07-06T08:36:45.478Z,2.10
2023-07-06T08:37:27.762Z,2.08
2023-07-06T08:38:12.791Z,1.95
2023-07-06T08:38:58.128Z,2.00
2023-07-06T08:39:40.438Z,1.75
2023-07-06T08:40:24.709Z,1.90
2023-07-06T08:41:20.489Z,1.90
2023-07-06T08:42:03.848Z,2.00
2023-07-06T08:42:49.253Z,1.83
2023-07-06T08:43:32.737Z,1.98
2023-07-06T08:44:18.554Z,2.15
2023-07-06T08:45:02.759Z,2.10
2023-07-06T08:45:47.589Z,2.60
2023-07-06T08:46:49.713Z,2.20
2023-07-06T08:47:32.703Z,2.15
2023-07-06T08:48:20.527Z,2.05
2023-07-06T08:49:02.967Z,2.05
2023-07-06T08:49:47.372Z,2.33
2023-07-06T08:50:31.738Z,2.15
2023-07-06T08:51:25.574Z,2.05
2023-07-06T08:52:09.786Z,2.05
2023-07-06T08:52:52.512Z,1.75
2023-07-06T08:53:35.468Z,1.60
2023-07-06T08:54:24.845Z,1.75
2023-07-06T08:55:11.888Z,1.70
2023-07-06T08:55:54.643Z,1.80
2023-07-06T08:56:42.527Z,2.05
2023-07-06T08:57:26.275Z,2.20
2023-07-06T08:58:09.307Z,2.10
2023-07-06T08:58:51.781Z,2.10
2023-07-06T09:00:03.776Z,2.20
2023-07-06T09:00:46.032Z,2.10
2023-07-06T09:01:28.325Z,2.55
2023-07-06T09:02:29.683Z,2.40
2023-07-06T09:03:18.055Z,2.00
2023-07-06T09:04:01.606Z,1.90
2023-07-06T09:04:44.058Z,2.30
2023-07-06T09:05:32.663Z,1.90
2023-07-06T09:06:19.546Z,2.00
2023-07-06T09:07:02.107Z,2.20
2023-07-06T09:07:45.622Z,2.10
2023-07-06T09:08:30.780Z,1.85
2023-07-06T09:09:15.488Z,1.90
2023-07-06T09:10:06.861Z,1.90
2023-07-06T09:11:00.753Z,2.20
2023-07-06T09:11:57.863Z,1.90
2023-07-06T09:12:40.714Z,2.00
2023-07-06T09:13:27.549Z,2.03
2023-07-06T09:14:17.557Z,1.80
2023-07-06T09:15:01.018Z,1.90
2023-07-06T09:15:47.901Z,1.60
2023-07-06T09:16:31.531Z,1.80
2023-07-06T09:17:17.903Z,1.80
2023-07-06T09:18:04.867Z,1.50
2023-07-06T09:18:48.066Z,1.60
2023-07-06T09:19:33.653Z,2.00
2023-07-06T09:20:17.984Z,1.63
2023-07-06T09:21:01.253Z,1.52
2023-07-06T09:21:45.232Z,1.80
2023-07-06T09:22:28.390Z,2.05
2023-07-06T09:23:15.184Z,2.20
2023-07-06T09:23:59.363Z,1.73
2023-07-06T09:24:45.981Z,1.83
2023-07-06T09:25:38.830Z,1.70
2023-07-06T09:26:32.641Z,2.20
2023-07-06T09:27:21.200Z,2.08
2023-07-06T09:28:08.865Z,1.50
2023-07-06T09:28:53.126Z,1.70
2023-07-06T09:29:36.636Z,1.58
2023-07-06T09:30:38.290Z,1.98
2023-07-06T09:31:24.939Z,1.85
2023-07-06T09:32:25.386Z,1.70
2023-07-06T09:33:18.062Z,2.05
2023-07-06T09:34:00.357Z,1.77
2023-07-06T09:34:45.979Z,1.80
2023-07-06T09:35:31.156Z,1.70
2023-07-06T09:36:20.487Z,1.83
2023-07-06T09:37:04.028Z,1.60
2023-07-06T09:37:49.420Z,1.77
2023-07-06T09:38:33.501Z,1.70
2023-07-06T09:39:15.697Z,2.00
2023-07-06T09:40:04.992Z,1.98
2023-07-06T09:40:47.928Z,2.00
2023-07-06T09:41:30.700Z,1.80
2023-07-06T09:42:15.369Z,1.98
2023-07-06T09:42:58.675Z,1.60
2023-07-06T09:43:41.069Z,1.58
2023-07-06T09:44:32.842Z,1.50
2023-07-06T09:45:33.437Z,1.40
2023-07-06T09:46:16.176Z,1.60
2023-07-06T09:46:59.068Z,1.50
2023-07-06T09:47:45.018Z,1.50
2023-07-06T09:48:37.524Z,1.98
2023-07-06T09:49:21.616Z,2.10
2023-07-06T09:50:16.835Z,1.40
2023-07-06T09:51:01.325Z,1.70
2023-07-06T09:51:46.435Z,1.58
2023-07-06T09:52:30.196Z,1.58
2023-07-06T09:53:14.551Z,1.50
2023-07-06T09:54:05.431Z,1.60